Time;durP1;ratioP1;P1;durP2;ratioP2;P2;SDS_P1;SDS_P2;PMS_P1;PMS_P2;Temp;Humidity;BMP_temperature;BMP_pressure;BME280_temperature;BME280_humidity;BME280_pressure;Samples;Min_cycle;Max_cycle;Signal;HPM_P1;HPM_P2
2021/12/30 00:00:27;;;;;;;19.05;10.60;;;;;;;;;;5070031;28;20028;-66
2021/12/30 00:02:52;;;;;;;16.52;10.52;;;;;;;;;;5069970;28;20021;-66
2021/12/30 00:05:18;;;;;;;20.10;10.50;;;;;;;;;;5070014;28;20032;-65
2021/12/30 00:07:43;;;;;;;16.40;10.48;;;;;;;;;;5070019;28;20111;-66
2021/12/30 00:10:10;;;;;;;16.60;10.18;;;;;;;;;;5069893;28;20080;-66
2021/12/30 00:12:36;;;;;;;18.75;9.82;;;;;;;;;;5069818;28;20384;-65
2021/12/30 00:15:03;;;;;;;17.73;9.75;;;;;;;;;;5069497;28;20031;-66
2021/12/30 00:17:28;;;;;;;15.52;10.00;;;;;;;;;;5069958;28;20064;-65
2021/12/30 00:19:54;;;;;;;16.95;9.45;;;;;;;;;;5070471;28;20090;-65
2021/12/30 00:22:19;;;;;;;15.40;9.43;;;;;;;;;;5073474;28;20074;-65
2021/12/30 00:24:45;;;;;;;16.58;9.90;;;;;;;;;;5055380;28;20392;-65
2021/12/30 00:27:10;;;;;;;17.85;9.77;;;;;;;;;;5073263;28;20028;-65
2021/12/30 00:29:36;;;;;;;14.55;9.40;;;;;;;;;;5073404;28;20033;-66
2021/12/30 00:32:03;;;;;;;13.93;9.35;;;;;;;;;;5073535;28;20144;-66
2021/12/30 00:34:29;;;;;;;12.73;8.73;;;;;;;;;;5072836;28;20039;-66
2021/12/30 00:36:54;;;;;;;16.33;9.73;;;;;;;;;;5055262;28;20025;-66
2021/12/30 00:39:23;;;;;;;14.60;8.75;;;;;;;;;;5073067;28;20430;-65
2021/12/30 00:41:48;;;;;;;15.02;9.13;;;;;;;;;;5073032;28;20033;-66
2021/12/30 00:44:14;;;;;;;18.98;10.93;;;;;;;;;;5072900;28;20025;-66
2021/12/30 00:46:39;;;;;;;12.85;8.98;;;;;;;;;;5073000;28;20051;-65
2021/12/30 00:49:04;;;;;;;14.20;8.95;;;;;;;;;;5073030;28;20044;-65
2021/12/30 00:51:30;;;;;;;15.27;8.90;;;;;;;;;;5073020;28;20434;-65
2021/12/30 00:53:56;;;;;;;15.43;9.43;;;;;;;;;;5072864;28;20255;-65
2021/12/30 00:56:22;;;;;;;14.15;9.45;;;;;;;;;;5072724;28;20029;-65
2021/12/30 00:58:47;;;;;;;13.48;8.05;;;;;;;;;;5072739;28;20056;-65
2021/12/30 01:01:13;;;;;;;13.00;8.02;;;;;;;;;;5072864;28;20059;-65
2021/12/30 01:03:38;;;;;;;15.38;8.32;;;;;;;;;;5072767;28;20017;-65
2021/12/30 01:06:04;;;;;;;11.82;7.60;;;;;;;;;;5072680;28;20074;-66
2021/12/30 01:08:29;;;;;;;14.43;8.60;;;;;;;;;;5072761;28;20021;-65
2021/12/30 01:10:58;;;;;;;16.30;9.20;;;;;;;;;;5072620;28;20071;-65
2021/12/30 01:13:27;;;;;;;12.90;8.35;;;;;;;;;;5072660;28;20025;-66
2021/12/30 01:16:02;;;;;;;18.10;9.27;;;;;;;;;;5072416;28;20024;-66
2021/12/30 01:21:24;;;;;;;18.02;9.25;;;;;;;;;;5072486;28;20063;-65
2021/12/30 01:23:50;;;;;;;14.80;8.68;;;;;;;;;;5072440;28;20033;-65
2021/12/30 01:26:16;;;;;;;11.70;7.95;;;;;;;;;;5072174;28;20031;-65
2021/12/30 01:28:42;;;;;;;13.40;8.23;;;;;;;;;;5072181;28;20128;-65
2021/12/30 01:31:09;;;;;;;14.65;8.90;;;;;;;;;;5071649;28;20035;-65
2021/12/30 01:33:38;;;;;;;13.50;8.50;;;;;;;;;;5071767;28;20216;-66
2021/12/30 01:36:03;;;;;;;11.25;8.07;;;;;;;;;;5071864;28;20488;-66
2021/12/30 01:38:29;;;;;;;13.70;8.18;;;;;;;;;;5071967;28;20032;-65
2021/12/30 01:40:55;;;;;;;14.68;8.50;;;;;;;;;;5071877;28;20109;-65
2021/12/30 01:43:20;;;;;;;13.38;8.07;;;;;;;;;;5071918;28;20155;-65
2021/12/30 01:45:46;;;;;;;14.73;9.02;;;;;;;;;;5071670;28;20039;-66
2021/12/30 01:48:13;;;;;;;15.85;8.23;;;;;;;;;;5071929;28;20063;-65
2021/12/30 01:50:40;;;;;;;13.38;8.65;;;;;;;;;;5072065;28;20028;-66
2021/12/30 01:53:06;;;;;;;16.60;9.20;;;;;;;;;;5071708;28;20495;-65
2021/12/30 01:55:34;;;;;;;12.57;8.30;;;;;;;;;;5071572;28;20028;-65
2021/12/30 01:58:01;;;;;;;13.77;8.80;;;;;;;;;;5071420;28;20035;-65
2021/12/30 02:00:28;;;;;;;15.07;8.43;;;;;;;;;;5071667;28;20078;-65
2021/12/30 02:02:54;;;;;;;17.65;8.05;;;;;;;;;;5071542;28;20025;-65
2021/12/30 02:05:20;;;;;;;11.82;7.32;;;;;;;;;;5071268;28;20093;-66
2021/12/30 02:07:46;;;;;;;14.05;8.65;;;;;;;;;;5071573;28;20110;-65
2021/12/30 02:10:13;;;;;;;13.45;8.07;;;;;;;;;;5071538;28;20028;-65
2021/12/30 02:12:40;;;;;;;12.77;7.45;;;;;;;;;;5071236;28;20029;-65
2021/12/30 02:15:10;;;;;;;12.55;7.00;;;;;;;;;;5071116;28;20536;-65
2021/12/30 02:17:35;;;;;;;17.63;7.68;;;;;;;;;;5071234;28;20020;-65
2021/12/30 02:20:04;;;;;;;10.30;6.93;;;;;;;;;;5071362;28;20086;-65
2021/12/30 02:22:30;;;;;;;8.90;5.95;;;;;;;;;;5071421;28;20020;-65
2021/12/30 02:24:58;;;;;;;12.45;6.97;;;;;;;;;;5071095;28;20017;-65
2021/12/30 02:27:23;;;;;;;10.93;7.28;;;;;;;;;;5071168;28;20104;-65
2021/12/30 02:29:49;;;;;;;12.65;7.22;;;;;;;;;;5070866;28;20564;-66
2021/12/30 02:32:14;;;;;;;9.55;6.68;;;;;;;;;;5070965;28;20039;-65
2021/12/30 02:34:40;;;;;;;11.48;6.82;;;;;;;;;;5070726;28;20517;-69
2021/12/30 02:37:07;;;;;;;10.80;6.50;;;;;;;;;;5070872;28;20024;-65
2021/12/30 02:39:33;;;;;;;13.13;6.85;;;;;;;;;;5071223;28;20302;-65
2021/12/30 02:41:59;;;;;;;12.10;6.63;;;;;;;;;;5070886;28;20028;-65
2021/12/30 02:44:25;;;;;;;12.30;6.57;;;;;;;;;;5070616;28;20033;-65
2021/12/30 02:46:52;;;;;;;14.20;6.65;;;;;;;;;;5070677;28;20274;-66
2021/12/30 02:49:17;;;;;;;13.18;6.57;;;;;;;;;;5070815;28;20032;-65
2021/12/30 02:51:43;;;;;;;14.05;7.35;;;;;;;;;;5070922;28;20029;-65
2021/12/30 02:54:09;;;;;;;13.60;6.50;;;;;;;;;;5052624;28;20246;-65
2021/12/30 02:56:39;;;;;;;11.02;6.97;;;;;;;;;;5070574;28;20037;-66
2021/12/30 02:59:05;;;;;;;14.13;7.07;;;;;;;;;;5070544;28;20035;-66
2021/12/30 03:01:32;;;;;;;12.27;7.32;;;;;;;;;;5070571;28;20388;-65
2021/12/30 03:04:05;;;;;;;15.60;7.80;;;;;;;;;;5070662;28;20074;-65
2021/12/30 03:06:31;;;;;;;14.38;7.65;;;;;;;;;;5070229;28;20472;-66
2021/12/30 03:08:57;;;;;;;15.20;7.43;;;;;;;;;;5070590;28;20032;-65
2021/12/30 03:11:24;;;;;;;12.52;7.05;;;;;;;;;;5070547;28;20395;-65
2021/12/30 03:13:53;;;;;;;10.43;6.90;;;;;;;;;;5070461;28;20031;-66
2021/12/30 03:16:24;;;;;;;12.68;7.30;;;;;;;;;;5070256;28;20077;-65
2021/12/30 03:18:50;;;;;;;13.25;6.82;;;;;;;;;;5070292;28;20074;-65
2021/12/30 03:21:19;;;;;;;16.38;7.70;;;;;;;;;;5070359;28;20221;-65
2021/12/30 03:23:45;;;;;;;12.45;7.05;;;;;;;;;;5070312;28;20032;-65
2021/12/30 03:26:11;;;;;;;10.65;7.50;;;;;;;;;;5070009;28;20103;-66
2021/12/30 03:28:41;;;;;;;17.23;7.38;;;;;;;;;;5070248;28;20081;-65
2021/12/30 03:31:12;;;;;;;9.50;6.45;;;;;;;;;;5070269;28;20032;-66
2021/12/30 03:33:38;;;;;;;13.70;7.45;;;;;;;;;;5070271;28;20025;-65
2021/12/30 03:36:06;;;;;;;14.18;7.18;;;;;;;;;;5069927;28;20055;-65
2021/12/30 03:38:34;;;;;;;10.93;7.05;;;;;;;;;;5070082;28;20491;-65
2021/12/30 03:41:01;;;;;;;13.00;7.90;;;;;;;;;;5070179;28;20503;-65
2021/12/30 03:43:27;;;;;;;11.55;6.80;;;;;;;;;;5070143;28;20070;-65
2021/12/30 03:45:53;;;;;;;12.73;7.20;;;;;;;;;;5069845;28;20021;-65
2021/12/30 03:48:19;;;;;;;15.15;8.35;;;;;;;;;;5069891;28;20476;-66
2021/12/30 03:50:47;;;;;;;14.45;7.50;;;;;;;;;;5070068;28;20626;-65
2021/12/30 03:53:14;;;;;;;11.05;6.80;;;;;;;;;;5069958;28;20016;-65
2021/12/30 03:55:40;;;;;;;12.30;8.65;;;;;;;;;;5071527;28;20032;-65
2021/12/30 03:58:05;;;;;;;15.70;8.82;;;;;;;;;;5073535;28;20476;-65
2021/12/30 04:00:33;;;;;;;13.40;8.50;;;;;;;;;;5073779;28;20104;-65
2021/12/30 04:02:58;;;;;;;12.40;8.35;;;;;;;;;;5073768;28;20035;-65
2021/12/30 04:05:24;;;;;;;15.63;8.98;;;;;;;;;;5073582;28;20029;-66
2021/12/30 04:07:50;;;;;;;17.05;9.52;;;;;;;;;;5073507;28;20482;-65
2021/12/30 04:10:17;;;;;;;15.32;9.02;;;;;;;;;;5073666;28;20029;-65
2021/12/30 04:12:44;;;;;;;16.08;9.73;;;;;;;;;;5073353;28;20025;-65
2021/12/30 04:15:10;;;;;;;12.15;8.13;;;;;;;;;;5073564;28;20029;-69
2021/12/30 04:17:36;;;;;;;14.00;8.82;;;;;;;;;;5073298;28;20097;-65
2021/12/30 04:20:04;;;;;;;13.48;8.18;;;;;;;;;;5073313;28;20108;-65
2021/12/30 04:22:29;;;;;;;13.07;8.00;;;;;;;;;;5073261;28;20464;-65
2021/12/30 04:24:55;;;;;;;10.65;7.65;;;;;;;;;;5073567;28;20077;-65
2021/12/30 04:27:20;;;;;;;12.60;8.50;;;;;;;;;;5073011;28;20077;-65
2021/12/30 04:29:46;;;;;;;13.35;7.85;;;;;;;;;;5073040;28;20024;-65
2021/12/30 04:32:11;;;;;;;14.18;7.75;;;;;;;;;;5073200;28;20200;-65
2021/12/30 04:34:37;;;;;;;13.07;8.05;;;;;;;;;;5073123;28;20044;-65
2021/12/30 04:37:03;;;;;;;13.10;7.55;;;;;;;;;;5073104;28;20024;-65
2021/12/30 04:39:30;;;;;;;11.80;7.03;;;;;;;;;;5073110;28;20115;-65
2021/12/30 04:42:01;;;;;;;13.90;7.38;;;;;;;;;;5073187;28;20028;-65
2021/12/30 04:44:29;;;;;;;12.10;7.80;;;;;;;;;;5072941;28;20048;-65
2021/12/30 04:46:56;;;;;;;14.77;6.90;;;;;;;;;;5073059;28;20557;-65
2021/12/30 04:49:22;;;;;;;10.27;7.00;;;;;;;;;;5073070;28;20025;-65
2021/12/30 04:51:48;;;;;;;10.68;6.70;;;;;;;;;;5073436;28;20115;-65
2021/12/30 04:54:13;;;;;;;9.77;6.45;;;;;;;;;;5072939;28;20451;-65
2021/12/30 04:56:38;;;;;;;11.60;6.88;;;;;;;;;;5072735;28;20107;-66
2021/12/30 04:59:04;;;;;;;10.88;6.90;;;;;;;;;;5072812;28;20036;-65
2021/12/30 05:01:29;;;;;;;8.02;5.75;;;;;;;;;;5072799;28;20025;-65
2021/12/30 05:03:55;;;;;;;11.38;6.10;;;;;;;;;;5072633;28;20056;-66
2021/12/30 05:06:20;;;;;;;9.13;6.15;;;;;;;;;;5072523;28;20021;-65
2021/12/30 05:08:46;;;;;;;11.55;6.13;;;;;;;;;;5054578;28;20037;-65
2021/12/30 05:11:12;;;;;;;8.07;5.85;;;;;;;;;;5072770;28;20043;-65
2021/12/30 05:13:37;;;;;;;12.32;6.38;;;;;;;;;;5072609;28;20343;-65
2021/12/30 05:16:03;;;;;;;9.25;6.18;;;;;;;;;;5072402;28;20024;-65
2021/12/30 05:18:33;;;;;;;10.13;5.80;;;;;;;;;;5072755;28;20024;-65
2021/12/30 05:21:00;;;;;;;10.70;6.20;;;;;;;;;;5072445;28;20043;-65
2021/12/30 05:23:27;;;;;;;11.07;6.40;;;;;;;;;;5054532;28;20388;-65
2021/12/30 05:25:53;;;;;;;10.52;6.22;;;;;;;;;;5072220;28;20033;-65
2021/12/30 05:28:18;;;;;;;11.32;6.47;;;;;;;;;;5072447;28;20024;-65
2021/12/30 05:30:44;;;;;;;11.88;6.40;;;;;;;;;;5072303;28;20027;-65
2021/12/30 05:33:09;;;;;;;11.27;6.20;;;;;;;;;;5072700;28;20090;-65
2021/12/30 05:35:35;;;;;;;11.00;6.07;;;;;;;;;;5072157;28;20128;-66
2021/12/30 05:38:02;;;;;;;9.35;5.72;;;;;;;;;;5072034;28;20111;-65
2021/12/30 05:40:28;;;;;;;9.35;5.50;;;;;;;;;;5072088;28;20032;-65
2021/12/30 05:42:54;;;;;;;9.43;5.55;;;;;;;;;;5072036;28;20549;-65
2021/12/30 05:45:20;;;;;;;12.02;6.25;;;;;;;;;;5072468;28;20025;-66
2021/12/30 05:47:49;;;;;;;8.10;5.53;;;;;;;;;;5071665;28;20033;-66
2021/12/30 05:50:18;;;;;;;9.57;6.07;;;;;;;;;;5071897;28;20064;-66
2021/12/30 05:52:45;;;;;;;15.10;5.90;;;;;;;;;;5071776;28;20025;-65
2021/12/30 05:55:11;;;;;;;8.90;5.53;;;;;;;;;;5071607;28;20037;-65
2021/12/30 05:57:37;;;;;;;11.52;5.80;;;;;;;;;;5071584;28;20028;-65
2021/12/30 06:00:04;;;;;;;10.30;5.72;;;;;;;;;;5071511;28;20392;-66
2021/12/30 06:02:30;;;;;;;10.57;5.57;;;;;;;;;;5071594;28;20032;-65
2021/12/30 06:04:55;;;;;;;8.77;5.40;;;;;;;;;;5071570;28;20039;-66
2021/12/30 06:07:21;;;;;;;8.93;5.53;;;;;;;;;;5071243;28;20021;-66
2021/12/30 06:09:46;;;;;;;8.15;5.53;;;;;;;;;;5071445;28;20376;-65
2021/12/30 06:12:12;;;;;;;7.47;5.22;;;;;;;;;;5071472;28;20054;-65
2021/12/30 06:14:37;;;;;;;9.73;5.55;;;;;;;;;;5071274;28;20021;-65
2021/12/30 06:17:03;;;;;;;11.07;6.22;;;;;;;;;;5070916;28;20062;-65
2021/12/30 06:19:28;;;;;;;9.07;6.03;;;;;;;;;;5070640;28;20040;-66
2021/12/30 06:21:54;;;;;;;12.05;6.30;;;;;;;;;;5071302;28;20028;-65
2021/12/30 06:24:19;;;;;;;9.20;5.95;;;;;;;;;;5071207;28;20060;-65
2021/12/30 06:26:45;;;;;;;11.88;6.28;;;;;;;;;;5070948;28;20029;-65
2021/12/30 06:29:10;;;;;;;7.93;5.50;;;;;;;;;;5071118;28;20028;-65
2021/12/30 06:31:37;;;;;;;12.10;5.85;;;;;;;;;;5071319;28;20031;-65
2021/12/30 06:34:03;;;;;;;11.38;6.15;;;;;;;;;;5071043;28;20028;-66
2021/12/30 06:36:28;;;;;;;8.15;5.22;;;;;;;;;;5070748;28;20048;-65
2021/12/30 06:38:54;;;;;;;7.70;5.38;;;;;;;;;;5070934;28;20502;-65
2021/12/30 06:41:19;;;;;;;9.73;6.03;;;;;;;;;;5070983;28;20035;-65
2021/12/30 06:43:45;;;;;;;10.43;5.05;;;;;;;;;;5071187;28;20024;-65
2021/12/30 06:46:10;;;;;;;7.72;5.28;;;;;;;;;;5070588;28;20400;-73
2021/12/30 06:48:37;;;;;;;12.45;6.28;;;;;;;;;;5071034;28;20460;-65
2021/12/30 06:51:04;;;;;;;11.38;6.47;;;;;;;;;;5070783;28;20033;-65
2021/12/30 06:53:31;;;;;;;11.73;6.25;;;;;;;;;;5070888;28;20029;-65
2021/12/30 06:55:57;;;;;;;17.75;6.63;;;;;;;;;;5070689;28;20024;-65
2021/12/30 06:58:23;;;;;;;10.73;5.55;;;;;;;;;;5070364;28;20025;-66
2021/12/30 07:00:50;;;;;;;11.18;6.35;;;;;;;;;;5070598;28;20464;-65
2021/12/30 07:03:15;;;;;;;9.23;5.72;;;;;;;;;;5070500;28;20054;-65
2021/12/30 07:05:41;;;;;;;10.30;5.85;;;;;;;;;;5070826;28;20385;-65
2021/12/30 07:08:06;;;;;;;10.05;5.60;;;;;;;;;;5070576;28;20112;-65
2021/12/30 07:10:32;;;;;;;12.02;6.07;;;;;;;;;;5070514;28;20093;-66
2021/12/30 07:12:57;;;;;;;11.35;6.22;;;;;;;;;;5070419;28;20031;-65
2021/12/30 07:15:23;;;;;;;14.88;7.15;;;;;;;;;;5070414;28;20110;-66
2021/12/30 07:17:49;;;;;;;11.38;6.18;;;;;;;;;;5070213;28;20029;-65
2021/12/30 07:20:14;;;;;;;11.73;6.72;;;;;;;;;;5070219;28;20093;-65
2021/12/30 07:22:40;;;;;;;12.90;6.65;;;;;;;;;;5070955;28;20060;-66
2021/12/30 07:25:07;;;;;;;13.75;7.13;;;;;;;;;;5070828;28;20052;-66
2021/12/30 07:27:33;;;;;;;11.80;7.00;;;;;;;;;;5070156;28;20021;-65
2021/12/30 07:29:59;;;;;;;9.80;6.20;;;;;;;;;;5071121;28;20027;-65
2021/12/30 07:32:27;;;;;;;10.80;6.15;;;;;;;;;;5074702;28;20021;-66
2021/12/30 07:34:53;;;;;;;11.55;6.18;;;;;;;;;;5074260;28;20494;-65
2021/12/30 07:37:19;;;;;;;13.55;6.00;;;;;;;;;;5074319;28;20071;-65
2021/12/30 07:39:46;;;;;;;11.82;6.50;;;;;;;;;;5056311;28;20056;-66
2021/12/30 07:42:12;;;;;;;11.05;5.60;;;;;;;;;;5074224;28;20111;-65
2021/12/30 07:44:38;;;;;;;12.80;6.28;;;;;;;;;;5074094;28;20084;-65
2021/12/30 07:47:05;;;;;;;13.40;5.85;;;;;;;;;;5074107;28;20324;-66
2021/12/30 07:49:32;;;;;;;11.93;7.05;;;;;;;;;;5074214;28;20400;-65
2021/12/30 07:51:58;;;;;;;10.82;6.57;;;;;;;;;;5074191;28;20040;-65
2021/12/30 07:54:24;;;;;;;10.45;6.10;;;;;;;;;;5074030;28;20027;-65
2021/12/30 07:56:50;;;;;;;13.25;6.07;;;;;;;;;;5073864;28;20032;-66
2021/12/30 07:59:15;;;;;;;13.45;6.18;;;;;;;;;;5073643;28;20040;-65
2021/12/30 08:01:41;;;;;;;12.45;6.38;;;;;;;;;;5074015;28;20028;-65
2021/12/30 08:04:06;;;;;;;12.85;6.15;;;;;;;;;;5074018;28;20099;-65
2021/12/30 08:06:33;;;;;;;9.07;5.80;;;;;;;;;;5073711;28;20021;-65
2021/12/30 08:08:58;;;;;;;12.70;5.68;;;;;;;;;;5073659;28;20031;-65
2021/12/30 08:11:24;;;;;;;13.18;6.45;;;;;;;;;;5074033;28;20021;-65
2021/12/30 08:13:49;;;;;;;9.25;6.00;;;;;;;;;;5073436;28;20025;-65
2021/12/30 08:16:15;;;;;;;11.85;6.10;;;;;;;;;;5073657;28;20037;-66
2021/12/30 08:18:41;;;;;;;12.15;6.18;;;;;;;;;;5073189;28;20468;-65
2021/12/30 08:21:07;;;;;;;8.90;5.40;;;;;;;;;;5073604;28;20029;-65
2021/12/30 08:23:32;;;;;;;8.52;4.90;;;;;;;;;;5073509;28;20032;-66
2021/12/30 08:25:58;;;;;;;12.77;4.65;;;;;;;;;;5073930;28;20029;-65
2021/12/30 08:28:25;;;;;;;8.43;5.00;;;;;;;;;;5073163;28;20221;-65
2021/12/30 08:30:51;;;;;;;8.00;4.05;;;;;;;;;;5073171;28;20027;-66
2021/12/30 08:33:17;;;;;;;9.48;5.43;;;;;;;;;;5073364;28;20032;-65
2021/12/30 08:35:43;;;;;;;10.23;5.72;;;;;;;;;;5072994;28;20094;-65
2021/12/30 08:38:08;;;;;;;9.75;5.35;;;;;;;;;;5073075;28;20024;-66
2021/12/30 08:40:34;;;;;;;9.65;5.20;;;;;;;;;;5072637;28;20127;-66
2021/12/30 08:42:59;;;;;;;9.57;5.00;;;;;;;;;;5072918;28;20177;-65
2021/12/30 08:45:26;;;;;;;10.25;5.30;;;;;;;;;;5073079;28;20025;-66
2021/12/30 08:47:51;;;;;;;10.57;6.30;;;;;;;;;;5073094;28;20415;-66
2021/12/30 08:50:17;;;;;;;9.57;5.68;;;;;;;;;;5073152;28;20472;-65
2021/12/30 08:52:44;;;;;;;8.70;5.38;;;;;;;;;;5072958;28;20048;-66
2021/12/30 08:55:11;;;;;;;8.63;5.10;;;;;;;;;;5072870;28;20037;-65
2021/12/30 08:57:40;;;;;;;10.07;5.13;;;;;;;;;;5072919;28;20032;-65
2021/12/30 09:00:12;;;;;;;10.55;5.07;;;;;;;;;;5072624;28;20028;-65
2021/12/30 09:02:38;;;;;;;11.63;5.55;;;;;;;;;;5072804;28;20028;-66
2021/12/30 09:05:04;;;;;;;9.98;5.75;;;;;;;;;;5072763;28;20055;-66
2021/12/30 09:07:29;;;;;;;10.82;6.38;;;;;;;;;;5072570;28;20070;-66
2021/12/30 09:09:55;;;;;;;12.73;6.07;;;;;;;;;;5072683;28;20021;-66
2021/12/30 09:12:22;;;;;;;11.85;5.90;;;;;;;;;;5072703;28;20388;-66
2021/12/30 09:14:48;;;;;;;9.18;5.30;;;;;;;;;;5072481;28;20032;-66
2021/12/30 09:17:13;;;;;;;9.18;5.57;;;;;;;;;;5072599;28;20027;-75
2021/12/30 09:19:39;;;;;;;11.13;5.43;;;;;;;;;;5072301;28;20040;-65
2021/12/30 09:22:04;;;;;;;10.85;5.88;;;;;;;;;;5072896;28;20020;-65
2021/12/30 09:24:29;;;;;;;12.20;5.75;;;;;;;;;;5072542;28;20460;-65
2021/12/30 09:26:55;;;;;;;13.27;6.43;;;;;;;;;;5072426;28;20086;-66
2021/12/30 09:29:21;;;;;;;12.40;6.50;;;;;;;;;;5071937;28;20032;-65
2021/12/30 09:31:49;;;;;;;15.07;6.68;;;;;;;;;;5072416;28;20031;-66
2021/12/30 09:34:14;;;;;;;11.40;7.13;;;;;;;;;;5072186;28;20055;-66
2021/12/30 09:36:40;;;;;;;22.73;11.00;;;;;;;;;;5071868;28;20067;-66
2021/12/30 09:39:09;;;;;;;30.30;14.85;;;;;;;;;;5071759;28;20032;-66
2021/12/30 09:41:37;;;;;;;18.65;9.77;;;;;;;;;;5072050;28;20024;-66
2021/12/30 09:44:04;;;;;;;14.65;7.60;;;;;;;;;;5071816;28;20514;-65
2021/12/30 09:46:30;;;;;;;15.52;7.53;;;;;;;;;;5071976;28;20028;-66
2021/12/30 09:48:55;;;;;;;15.15;6.95;;;;;;;;;;5071846;28;20039;-66
2021/12/30 09:51:21;;;;;;;12.43;5.25;;;;;;;;;;5071937;28;20048;-66
2021/12/30 09:53:52;;;;;;;11.05;5.57;;;;;;;;;;5070759;28;20063;-66
2021/12/30 09:56:19;;;;;;;14.38;5.00;;;;;;;;;;5071732;28;20491;-66
2021/12/30 09:58:45;;;;;;;10.13;4.50;;;;;;;;;;5071392;28;20357;-66
2021/12/30 10:01:11;;;;;;;14.05;4.30;;;;;;;;;;5071746;28;20021;-66
2021/12/30 10:03:36;;;;;;;10.95;4.05;;;;;;;;;;5071717;28;20399;-66
2021/12/30 10:06:11;;;;;;;10.70;4.60;;;;;;;;;;5071630;28;20017;-66
2021/12/30 10:08:42;;;;;;;11.32;4.65;;;;;;;;;;5071369;28;20028;-66
2021/12/30 10:11:13;;;;;;;11.82;4.30;;;;;;;;;;5071461;28;20051;-66
2021/12/30 10:13:47;;;;;;;9.48;4.47;;;;;;;;;;5071253;28;20108;-66
2021/12/30 10:16:15;;;;;;;11.73;4.88;;;;;;;;;;5071402;28;20017;-66
2021/12/30 10:19:00;;;;;;;11.65;5.40;;;;;;;;;;5070840;28;20031;-66
2021/12/30 10:21:39;;;;;;;15.50;4.53;;;;;;;;;;5071170;28;20029;-66
2021/12/30 10:24:08;;;;;;;7.95;4.20;;;;;;;;;;5071371;28;20025;-66
2021/12/30 10:27:21;;;;;;;12.65;6.03;;;;;;;;;;5071247;28;20032;-66
2021/12/30 10:29:48;;;;;;;16.10;8.82;;;;;;;;;;5028391;28;20218;-66
2021/12/30 10:32:16;;;;;;;16.08;7.53;;;;;;;;;;5065762;28;20479;-66
2021/12/30 10:35:06;;;;;;;11.52;5.55;;;;;;;;;;5071088;28;20037;-66
2021/12/30 10:37:33;;;;;;;12.05;4.57;;;;;;;;;;5053001;28;20158;-66
2021/12/30 10:39:59;;;;;;;10.60;4.80;;;;;;;;;;5070839;28;20039;-66
2021/12/30 10:42:30;;;;;;;7.90;4.38;;;;;;;;;;5070966;28;20040;-66
2021/12/30 10:45:00;;;;;;;9.60;4.60;;;;;;;;;;5070794;28;20438;-66
2021/12/30 10:47:31;;;;;;;9.90;4.87;;;;;;;;;;5071026;28;20468;-66
2021/12/30 10:49:58;;;;;;;9.73;5.00;;;;;;;;;;5070554;28;20263;-66
2021/12/30 10:52:24;;;;;;;13.23;5.05;;;;;;;;;;5053116;28;20181;-66
2021/12/30 10:54:49;;;;;;;10.98;4.85;;;;;;;;;;5070758;28;20173;-66
2021/12/30 10:57:15;;;;;;;9.00;3.95;;;;;;;;;;5070781;28;20154;-66
2021/12/30 10:59:48;;;;;;;7.05;2.95;;;;;;;;;;5070290;28;20383;-66
2021/12/30 11:02:22;;;;;;;7.80;3.40;;;;;;;;;;5070544;28;20388;-66
2021/12/30 11:05:04;;;;;;;7.63;2.70;;;;;;;;;;5070298;28;20034;-66
2021/12/30 11:07:42;;;;;;;4.90;2.70;;;;;;;;;;5070229;28;20104;-66
2021/12/30 11:10:07;;;;;;;8.68;3.13;;;;;;;;;;5070305;28;20032;-66
2021/12/30 11:12:38;;;;;;;8.85;3.78;;;;;;;;;;5070519;28;20029;-66
2021/12/30 11:15:27;;;;;;;10.57;3.30;;;;;;;;;;5070547;28;20547;-66
2021/12/30 11:18:23;;;;;;;12.68;4.10;;;;;;;;;;5070340;28;20031;-66
2021/12/30 11:20:49;;;;;;;6.80;3.78;;;;;;;;;;5061302;28;20521;-66
2021/12/30 11:23:16;;;;;;;9.55;3.63;;;;;;;;;;5070150;28;20051;-66
2021/12/30 11:25:44;;;;;;;11.75;3.80;;;;;;;;;;5070203;28;20025;-66
2021/12/30 11:28:10;;;;;;;10.80;4.13;;;;;;;;;;5069955;28;20027;-66
2021/12/30 11:30:35;;;;;;;9.70;4.28;;;;;;;;;;5070035;28;20032;-66
2021/12/30 11:33:02;;;;;;;16.23;5.20;;;;;;;;;;5070156;28;20025;-66
2021/12/30 11:35:28;;;;;;;11.60;5.85;;;;;;;;;;5069921;28;20059;-66
2021/12/30 11:37:55;;;;;;;11.93;6.53;;;;;;;;;;5070053;28;20037;-66
2021/12/30 11:40:25;;;;;;;13.57;6.50;;;;;;;;;;5069875;28;20028;-66
2021/12/30 11:42:53;;;;;;;13.63;4.80;;;;;;;;;;5069825;28;20035;-66
2021/12/30 11:45:32;;;;;;;9.52;3.78;;;;;;;;;;5070171;28;20361;-66
2021/12/30 11:48:17;;;;;;;10.23;4.30;;;;;;;;;;5070173;28;20471;-66
2021/12/30 11:50:42;;;;;;;11.65;4.10;;;;;;;;;;5069965;28;20036;-66
2021/12/30 11:53:12;;;;;;;9.30;4.80;;;;;;;;;;5069869;28;20078;-66
2021/12/30 11:55:51;;;;;;;14.38;5.10;;;;;;;;;;5069926;28;20031;-66
2021/12/30 11:58:35;;;;;;;19.73;6.38;;;;;;;;;;5069716;28;20028;-68
2021/12/30 12:01:24;;;;;;;13.63;6.38;;;;;;;;;;5070035;28;20107;-66
2021/12/30 12:03:52;;;;;;;12.05;5.80;;;;;;;;;;5064366;28;20048;-66
2021/12/30 12:06:23;;;;;;;13.82;5.20;;;;;;;;;;5069972;28;20472;-66
2021/12/30 12:08:50;;;;;;;13.95;4.90;;;;;;;;;;5069690;28;20526;-66
2021/12/30 12:11:18;;;;;;;12.13;5.28;;;;;;;;;;5070007;28;20078;-66
2021/12/30 12:13:45;;;;;;;14.23;5.57;;;;;;;;;;5069917;28;20031;-66
2021/12/30 12:16:14;;;;;;;16.73;5.25;;;;;;;;;;5071060;28;20029;-66
2021/12/30 12:19:06;;;;;;;14.45;5.10;;;;;;;;;;5073693;28;20029;-66
2021/12/30 12:21:49;;;;;;;13.75;5.53;;;;;;;;;;5073535;28;20073;-66
2021/12/30 12:24:20;;;;;;;12.70;5.38;;;;;;;;;;5073765;28;20051;-66
2021/12/30 12:26:46;;;;;;;14.50;5.15;;;;;;;;;;5073471;28;20029;-66
2021/12/30 12:29:43;;;;;;;11.40;5.22;;;;;;;;;;5073063;28;20037;-66
2021/12/30 12:32:18;;;;;;;15.05;5.68;;;;;;;;;;5073389;28;20094;-66
2021/12/30 12:34:56;;;;;;;13.07;4.70;;;;;;;;;;5073672;28;20024;-66
2021/12/30 12:37:32;;;;;;;14.27;6.78;;;;;;;;;;5073642;28;20024;-66
2021/12/30 12:40:07;;;;;;;12.38;4.45;;;;;;;;;;5073040;28;20047;-66
2021/12/30 12:42:50;;;;;;;13.13;4.70;;;;;;;;;;5073000;28;20415;-66
2021/12/30 12:45:19;;;;;;;10.55;4.43;;;;;;;;;;5073222;28;20380;-66
2021/12/30 12:47:46;;;;;;;13.30;4.55;;;;;;;;;;5073311;28;20024;-66
2021/12/30 12:50:12;;;;;;;14.48;4.60;;;;;;;;;;5072709;28;20031;-66
2021/12/30 12:52:47;;;;;;;14.80;5.40;;;;;;;;;;5073033;28;20017;-66
2021/12/30 12:55:21;;;;;;;12.93;3.97;;;;;;;;;;5072958;28;20069;-66
2021/12/30 12:57:46;;;;;;;11.82;4.68;;;;;;;;;;5072739;28;20020;-66
2021/12/30 13:00:13;;;;;;;8.75;3.97;;;;;;;;;;5072570;28;20119;-66
2021/12/30 13:02:38;;;;;;;8.48;2.70;;;;;;;;;;5072968;28;20025;-66
2021/12/30 13:05:10;;;;;;;7.10;3.00;;;;;;;;;;5072741;28;20031;-66
2021/12/30 13:07:35;;;;;;;7.78;2.50;;;;;;;;;;5072746;28;20031;-66
2021/12/30 13:10:01;;;;;;;8.57;2.80;;;;;;;;;;5054582;28;20029;-66
2021/12/30 13:12:26;;;;;;;7.40;2.65;;;;;;;;;;5072806;28;20529;-66
2021/12/30 13:14:51;;;;;;;9.60;2.75;;;;;;;;;;5072519;28;20188;-66
2021/12/30 13:17:17;;;;;;;7.63;2.50;;;;;;;;;;5072631;28;20472;-66
2021/12/30 13:19:46;;;;;;;7.43;2.65;;;;;;;;;;5054168;28;20028;-66
2021/12/30 13:22:20;;;;;;;7.28;2.38;;;;;;;;;;5054361;28;20039;-66
2021/12/30 13:24:49;;;;;;;5.88;2.72;;;;;;;;;;5072497;28;20020;-66
2021/12/30 13:27:14;;;;;;;8.32;2.80;;;;;;;;;;5071512;28;20567;-66
2021/12/30 13:29:43;;;;;;;7.85;2.33;;;;;;;;;;5071782;28;20099;-66
2021/12/30 13:32:16;;;;;;;6.28;2.60;;;;;;;;;;5072284;28;20024;-66
2021/12/30 13:35:06;;;;;;;10.30;2.60;;;;;;;;;;5072213;28;20503;-66
2021/12/30 13:37:36;;;;;;;9.23;2.72;;;;;;;;;;5072339;28;20078;-66
2021/12/30 13:40:12;;;;;;;7.65;2.78;;;;;;;;;;5071840;28;20072;-66
2021/12/30 13:42:47;;;;;;;8.40;2.70;;;;;;;;;;5072082;28;20024;-66
2021/12/30 13:45:13;;;;;;;10.95;3.60;;;;;;;;;;5072319;28;20376;-66
2021/12/30 13:47:39;;;;;;;17.27;6.45;;;;;;;;;;5071965;28;20479;-66
2021/12/30 13:50:16;;;;;;;16.50;6.22;;;;;;;;;;5071723;28;20032;-66
2021/12/30 13:52:43;;;;;;;19.00;6.80;;;;;;;;;;5071914;28;20035;-66
2021/12/30 13:55:12;;;;;;;17.23;5.88;;;;;;;;;;5071735;28;20025;-66
2021/12/30 13:57:38;;;;;;;13.43;4.85;;;;;;;;;;5071813;28;20222;-66
2021/12/30 14:00:06;;;;;;;13.82;5.00;;;;;;;;;;5071266;28;20388;-66
2021/12/30 14:02:32;;;;;;;11.70;4.47;;;;;;;;;;5071686;28;20032;-66
2021/12/30 14:05:14;;;;;;;17.80;4.55;;;;;;;;;;5071956;28;20033;-66
2021/12/30 14:07:45;;;;;;;11.63;4.80;;;;;;;;;;5071465;28;20031;-66
2021/12/30 14:10:12;;;;;;;19.02;5.15;;;;;;;;;;5071534;28;20059;-66
2021/12/30 14:12:38;;;;;;;15.60;4.72;;;;;;;;;;5071603;28;20498;-66
2021/12/30 14:15:33;;;;;;;12.05;3.80;;;;;;;;;;5071307;28;20029;-66
2021/12/30 14:18:02;;;;;;;10.68;3.85;;;;;;;;;;5062610;28;20056;-66
2021/12/30 14:20:29;;;;;;;13.63;3.85;;;;;;;;;;5070949;28;20151;-66
2021/12/30 14:22:54;;;;;;;12.85;4.00;;;;;;;;;;5071144;28;20404;-66
2021/12/30 14:25:33;;;;;;;11.73;3.67;;;;;;;;;;5071159;28;20490;-66
2021/12/30 14:28:01;;;;;;;12.80;3.83;;;;;;;;;;5070980;28;20166;-66
2021/12/30 14:30:31;;;;;;;17.95;4.13;;;;;;;;;;5070971;28;20074;-66
2021/12/30 14:33:23;;;;;;;10.80;3.95;;;;;;;;;;5071024;28;20111;-66
2021/12/30 14:35:49;;;;;;;13.27;3.92;;;;;;;;;;5071007;28;20044;-66
2021/12/30 14:38:29;;;;;;;10.75;4.30;;;;;;;;;;5070928;28;20031;-66
2021/12/30 14:41:11;;;;;;;12.98;4.28;;;;;;;;;;5070642;28;20387;-66